Time;durP1;ratioP1;P1;durP2;ratioP2;P2;SDS_P1;SDS_P2;PMS_P1;PMS_P2;Temp;Humidity;BMP_temperature;BMP_pressure;BME280_temperature;BME280_humidity;BME280_pressure;Samples;Min_cycle;Max_cycle;Signal;HPM_P1;HPM_P2
2021/01/24 04:03:22;;;;;;;19.02;9.68;;;;;;;3.69;100.00;100414.91;1709292;78;21054;-72
2021/01/24 04:05:51;;;;;;;25.62;11.73;;;;;;;3.68;100.00;100419.73;1743746;81;21077;-72
2021/01/24 04:08:21;;;;;;;28.05;11.95;;;;;;;3.69;100.00;100413.61;1741539;80;21180;-73
2021/01/24 04:10:49;;;;;;;27.93;11.43;;;;;;;3.70;100.00;100413.47;1742104;81;21136;-73
2021/01/24 04:13:17;;;;;;;33.53;12.55;;;;;;;3.71;100.00;100415.09;1747663;81;22328;-73
2021/01/24 04:15:46;;;;;;;38.48;14.55;;;;;;;3.71;100.00;100416.37;1743877;81;21062;-73
2021/01/24 04:18:15;;;;;;;32.67;13.60;;;;;;;3.74;100.00;100414.02;1743379;81;22373;-72
2021/01/24 04:20:44;;;;;;;35.50;12.43;;;;;;;3.75;100.00;100418.21;1745682;80;21558;-73
2021/01/24 04:23:12;;;;;;;29.52;11.33;;;;;;;3.75;100.00;100411.77;1742923;81;21132;-73
2021/01/24 04:25:41;;;;;;;34.65;12.63;;;;;;;3.74;100.00;100417.88;1742472;81;21192;-75
2021/01/24 04:28:09;;;;;;;28.70;12.20;;;;;;;3.73;100.00;100413.68;1742803;80;21242;-74
2021/01/24 04:30:37;;;;;;;24.87;10.72;;;;;;;3.73;100.00;100412.39;1743087;81;21061;-74
2021/01/24 04:33:07;;;;;;;20.00;9.60;;;;;;;3.70;100.00;100413.95;1745914;81;21500;-74
2021/01/24 04:35:36;;;;;;;20.52;8.50;;;;;;;3.70;100.00;100416.52;1739746;81;21120;-74
2021/01/24 04:38:06;;;;;;;15.40;9.35;;;;;;;3.69;100.00;100416.19;1745570;80;21513;-74
2021/01/24 04:40:34;;;;;;;20.02;9.40;;;;;;;3.69;100.00;100411.03;1741541;81;21203;-74
2021/01/24 04:43:04;;;;;;;16.20;9.33;;;;;;;3.68;100.00;100419.73;1739721;81;21116;-75
2021/01/24 04:45:32;;;;;;;16.52;10.05;;;;;;;3.66;100.00;100421.94;1743714;81;21579;-75
2021/01/24 04:48:01;;;;;;;16.77;7.83;;;;;;;3.68;100.00;100419.73;1739520;82;22458;-75
2021/01/24 04:50:29;;;;;;;14.55;9.45;;;;;;;3.69;100.00;100423.92;1746497;80;22164;-74
2021/01/24 04:52:58;;;;;;;15.90;9.25;;;;;;;3.71;100.00;100428.45;1745173;80;21524;-74
2021/01/24 04:55:27;;;;;;;17.62;8.43;;;;;;;3.72;100.00;100433.50;1742844;81;22596;-74
2021/01/24 04:57:55;;;;;;;17.52;8.98;;;;;;;3.74;100.00;100435.45;1704014;82;21617;-74
2021/01/24 05:00:25;;;;;;;16.23;8.93;;;;;;;3.78;100.00;100432.94;1743770;80;21041;-74
2021/01/24 05:02:53;;;;;;;15.68;8.68;;;;;;;3.83;100.00;100423.53;1740045;80;22283;-74
2021/01/24 05:05:22;;;;;;;21.60;9.70;;;;;;;3.85;100.00;100431.94;1744803;81;21112;-74
2021/01/24 05:07:57;;;;;;;19.20;9.03;;;;;;;3.88;100.00;100425.22;1736075;81;21670;-73
2021/01/24 05:10:30;;;;;;;18.15;9.73;;;;;;;3.92;100.00;100435.61;1736177;81;21464;-75
2021/01/24 05:13:00;;;;;;;17.70;8.53;;;;;;;3.95;100.00;100431.47;1733494;81;21006;-74
2021/01/24 05:15:28;;;;;;;24.12;10.68;;;;;;;3.99;100.00;100431.53;1734549;81;22648;-73
2021/01/24 05:17:59;;;;;;;22.73;10.00;;;;;;;4.01;100.00;100425.75;1739123;80;21527;-74
2021/01/24 05:20:29;;;;;;;24.55;11.22;;;;;;;4.04;100.00;100429.35;1727194;81;21662;-74
2021/01/24 05:23:01;;;;;;;29.77;11.90;;;;;;;4.05;100.00;100437.91;1737841;80;21451;-74
2021/01/24 05:25:31;;;;;;;25.65;12.43;;;;;;;4.06;100.00;100436.50;1738262;81;21172;-74
2021/01/24 05:28:19;;;;;;;24.30;10.38;;;;;;;4.09;100.00;100438.80;1738788;80;21197;-75
2021/01/24 05:30:47;;;;;;;33.45;14.53;;;;;;;4.11;100.00;100438.18;1740795;81;21096;-74
2021/01/24 05:33:17;;;;;;;39.20;15.95;;;;;;;4.11;100.00;100438.18;1734883;81;21117;-74
2021/01/24 05:35:50;;;;;;;49.80;23.30;;;;;;;4.11;100.00;100433.02;1736802;81;21120;-74
2021/01/24 05:38:30;;;;;;;51.23;24.57;;;;;;;4.14;100.00;100437.09;1736437;81;21208;-75
2021/01/24 05:41:05;;;;;;;45.55;22.25;;;;;;;4.13;100.00;100429.84;1737492;81;21347;-75
2021/01/24 05:43:39;;;;;;;31.90;14.23;;;;;;;4.17;100.00;100430.83;1731342;81;20989;-75
2021/01/24 05:46:07;;;;;;;44.93;21.52;;;;;;;4.19;100.00;100423.30;1740213;81;20922;-75
2021/01/24 05:48:37;;;;;;;46.65;16.87;;;;;;;4.23;100.00;100431.59;1735412;81;20997;-75
2021/01/24 05:51:07;;;;;;;27.35;12.15;;;;;;;4.23;100.00;100424.66;1737612;81;20922;-76
2021/01/24 05:53:40;;;;;;;32.38;14.03;;;;;;;4.26;100.00;100436.48;1732350;81;21449;-76
2021/01/24 05:56:10;;;;;;;33.13;12.85;;;;;;;4.30;100.00;100427.50;1733424;82;21037;-76
2021/01/24 05:58:40;;;;;;;34.90;13.98;;;;;;;4.34;100.00;100427.56;1733939;81;21610;-76
2021/01/24 06:01:09;;;;;;;27.55;13.78;;;;;;;4.39;100.00;100424.08;1740572;81;21140;-76
2021/01/24 06:03:37;;;;;;;31.90;12.45;;;;;;;4.42;100.00;100422.52;1732706;80;20926;-75
2021/01/24 06:06:06;;;;;;;27.15;11.68;;;;;;;4.46;100.00;100421.77;1735259;81;21540;-76
2021/01/24 06:08:34;;;;;;;23.90;10.72;;;;;;;4.49;100.00;100433.11;1735323;81;21143;-77
2021/01/24 06:11:03;;;;;;;21.23;8.95;;;;;;;4.49;100.00;100433.92;1739362;81;21090;-77
2021/01/24 06:13:32;;;;;;;18.17;8.98;;;;;;;4.51;100.00;100428.16;1746104;81;20997;-76
2021/01/24 06:16:13;;;;;;;22.50;10.03;;;;;;;4.52;100.00;100434.94;1703208;84;21117;-75
2021/01/24 06:18:59;;;;;;;22.87;9.08;;;;;;;4.53;100.00;100440.91;1699454;84;21420;-76
2021/01/24 06:21:37;;;;;;;24.35;11.03;;;;;;;4.55;100.00;100443.70;1702593;84;21520;-76
2021/01/24 06:24:21;;;;;;;27.20;11.97;;;;;;;4.59;100.00;100447.63;1701337;84;21683;-76
2021/01/24 06:26:56;;;;;;;29.42;10.10;;;;;;;4.63;100.00;100443.81;1702881;83;21038;-76
2021/01/24 06:29:25;;;;;;;25.02;10.45;;;;;;;4.67;100.00;100450.80;1696931;83;21083;-76
2021/01/24 06:31:54;;;;;;;25.75;9.45;;;;;;;4.68;100.00;100446.45;1700990;84;21658;-76
2021/01/24 06:34:40;;;;;;;21.33;9.95;;;;;;;4.71;100.00;100444.41;1701500;83;21554;-76
2021/01/24 06:37:09;;;;;;;17.62;9.18;;;;;;;4.75;100.00;100443.17;1672295;85;20942;-76
2021/01/24 06:39:57;;;;;;;16.82;8.63;;;;;;;4.83;100.00;100438.59;1699703;84;21121;-75
2021/01/24 06:42:50;;;;;;;15.53;7.58;;;;;;;4.88;100.00;100438.97;1681939;84;21449;-75
2021/01/24 06:45:30;;;;;;;11.57;6.80;;;;;;;4.91;100.00;100447.73;1697300;84;21287;-76
2021/01/24 06:47:59;;;;;;;12.82;6.30;;;;;;;4.94;100.00;100442.29;1677265;85;21078;-77
2021/01/24 06:50:40;;;;;;;12.15;7.47;;;;;;;4.97;100.00;100444.59;1675606;85;21680;-75
2021/01/24 06:53:21;;;;;;;15.70;9.23;;;;;;;4.99;100.00;100445.25;1695852;84;21071;-76
2021/01/24 06:56:00;;;;;;;16.10;8.08;;;;;;;5.02;100.00;100448.03;1685766;84;21231;-76
2021/01/24 06:58:36;;;;;;;16.17;7.80;;;;;;;5.03;100.00;100447.08;1696457;84;22234;-76
2021/01/24 07:01:26;;;;;;;12.68;6.60;;;;;;;5.05;100.00;100444.69;1685481;84;21087;-76
2021/01/24 07:04:32;;;;;;;12.90;7.25;;;;;;;5.10;100.00;100442.97;1719023;83;21545;-76
2021/01/24 07:07:07;;;;;;;12.85;7.25;;;;;;;5.12;100.00;100452.22;1712699;82;21214;-77
2021/01/24 07:09:41;;;;;;;13.50;7.10;;;;;;;5.16;100.00;100457.10;1727418;81;21485;-76
2021/01/24 07:12:09;;;;;;;13.78;7.67;;;;;;;5.16;100.00;100448.87;1719024;83;21275;-78
2021/01/24 07:14:43;;;;;;;15.83;7.97;;;;;;;5.17;100.00;100455.66;1781536;79;21651;-76
2021/01/24 07:17:14;;;;;;;14.13;7.15;;;;;;;5.17;100.00;100460.02;1781919;79;21109;-75
2021/01/24 07:19:52;;;;;;;12.55;7.92;;;;;;;5.19;100.00;100464.55;1782807;79;21563;-75
2021/01/24 07:22:23;;;;;;;26.60;11.15;;;;;;;5.20;100.00;100466.20;1781614;78;21634;-76
2021/01/24 07:24:53;;;;;;;16.82;8.98;;;;;;;5.22;100.00;100467.66;1782231;79;21335;-76
2021/01/24 07:27:25;;;;;;;14.83;8.80;;;;;;;5.24;100.00;100463.66;1780094;79;21009;-75
2021/01/24 07:29:54;;;;;;;19.52;9.00;;;;;;;5.29;100.00;100460.16;1783241;78;21120;-76
2021/01/24 07:32:24;;;;;;;21.37;8.98;;;;;;;5.34;100.00;100464.41;1780222;79;21104;-75
2021/01/24 07:34:54;;;;;;;20.00;9.50;;;;;;;5.38;100.00;100459.31;1780898;79;21599;-69
2021/01/24 07:37:22;;;;;;;16.07;8.53;;;;;;;5.45;100.00;100462.11;1742575;80;21147;-69
2021/01/24 07:39:51;;;;;;;19.00;8.65;;;;;;;5.53;100.00;100462.19;1743586;80;21148;-70
2021/01/24 07:42:19;;;;;;;18.57;8.38;;;;;;;5.55;100.00;100462.88;1741949;80;21157;-71
2021/01/24 07:44:49;;;;;;;15.32;8.13;;;;;;;5.58;100.00;100459.52;1742519;80;21212;-70
2021/01/24 07:47:19;;;;;;;14.45;7.15;;;;;;;5.58;100.00;100463.40;1744533;80;21110;-70
2021/01/24 07:49:47;;;;;;;13.35;7.47;;;;;;;5.58;100.00;100462.11;1745847;80;21198;-69
2021/01/24 07:52:17;;;;;;;14.13;7.60;;;;;;;5.59;100.00;100466.31;1744126;80;20960;-70
2021/01/24 07:54:45;;;;;;;16.17;8.00;;;;;;;5.63;100.00;100462.95;1743454;80;21130;-69
2021/01/24 07:57:14;;;;;;;16.40;9.08;;;;;;;5.67;100.00;100472.05;1714519;80;21082;-69
2021/01/24 07:59:43;;;;;;;15.53;8.23;;;;;;;5.72;100.00;100467.27;1744819;80;21114;-70
2021/01/24 08:02:12;;;;;;;18.70;9.05;;;;;;;5.78;100.00;100468.45;1741484;81;21850;-70
2021/01/24 08:04:42;;;;;;;16.20;9.63;;;;;;;5.83;100.00;100466.22;1742063;80;21684;-69
2021/01/24 08:07:10;;;;;;;15.70;7.50;;;;;;;5.88;100.00;100469.20;1710222;81;21164;-70
2021/01/24 08:09:39;;;;;;;15.25;8.83;;;;;;;5.95;100.00;100465.09;1737988;80;21644;-70
2021/01/24 08:12:12;;;;;;;21.25;9.35;;;;;;;6.00;100.00;100463.35;1714358;81;21195;-70
2021/01/24 08:14:40;;;;;;;19.73;9.80;;;;;;;6.03;100.00;100465.17;1741818;80;21195;-70
2021/01/24 08:17:12;;;;;;;18.32;8.50;;;;;;;6.11;100.00;100459.25;1725576;81;21063;-70
2021/01/24 08:19:40;;;;;;;;;;;;;;;6.23;100.00;100458.53;1774649;80;21140;-70
2021/01/24 08:22:08;;;;;;;20.40;8.10;;;;;;;6.38;100.00;100460.91;1780777;79;20206;-70
2021/01/24 08:24:37;;;;;;;14.13;7.70;;;;;;;6.51;100.00;100453.55;1779195;79;21061;-70
2021/01/24 08:27:06;;;;;;;15.83;8.43;;;;;;;6.58;100.00;100449.88;1780593;79;21299;-70
2021/01/24 08:29:35;;;;;;;15.40;8.03;;;;;;;6.61;100.00;100451.36;1776216;79;21237;-71
2021/01/24 08:32:04;;;;;;;11.67;7.27;;;;;;;6.71;100.00;100446.89;1751496;80;21404;-69
2021/01/24 08:34:33;;;;;;;12.33;6.63;;;;;;;6.78;100.00;100440.95;1742590;79;21814;-69
2021/01/24 08:37:03;;;;;;;11.63;7.57;;;;;;;6.83;100.00;100439.19;1734850;82;21884;-69
2021/01/24 08:39:32;;;;;;;13.83;8.20;;;;;;;6.84;100.00;100440.80;1704893;83;21383;-69
2021/01/24 08:42:05;;;;;;;13.73;7.50;;;;;;;6.83;100.00;100442.59;1730837;81;21503;-69
2021/01/24 08:44:33;;;;;;;15.27;7.77;;;;;;;6.81;100.00;100439.81;1729721;82;21272;-69
2021/01/24 08:47:05;;;;;;;16.60;7.73;;;;;;;6.84;100.00;100435.62;1735301;82;21872;-70
2021/01/24 08:49:34;;;;;;;14.37;8.07;;;;;;;6.88;100.00;100431.75;1735310;82;21274;-70
2021/01/24 08:52:03;;;;;;;16.27;8.40;;;;;;;6.91;100.00;100428.86;1733536;82;21861;-69
2021/01/24 08:54:37;;;;;;;14.43;7.47;;;;;;;6.88;100.00;100423.98;1732758;82;21410;-70
2021/01/24 08:57:14;;;;;;;14.07;7.80;;;;;;;6.80;100.00;100427.34;1738105;82;21226;-69
2021/01/24 08:59:59;;;;;;;15.60;8.23;;;;;;;6.80;100.00;100422.16;1708356;83;21756;-69
2021/01/24 09:02:29;;;;;;;17.53;8.93;;;;;;;6.88;100.00;100423.98;1733639;81;21726;-70
2021/01/24 09:04:57;;;;;;;15.33;7.53;;;;;;;7.01;100.00;100425.67;1736733;80;21252;-69
2021/01/24 09:07:43;;;;;;;16.43;9.77;;;;;;;7.11;100.00;100413.06;1695244;81;21331;-69
2021/01/24 09:10:32;;;;;;;17.67;9.50;;;;;;;7.23;100.00;100407.42;1696549;83;21393;-69
2021/01/24 09:13:04;;;;;;;16.03;8.17;;;;;;;7.41;100.00;100407.80;1697558;83;21346;-69
2021/01/24 09:15:33;;;;;;;18.63;9.73;;;;;;;7.53;100.00;100407.83;1692168;82;21221;-68
2021/01/24 09:18:01;;;;;;;16.13;8.87;;;;;;;7.59;100.00;100402.50;1697451;83;21931;-68
2021/01/24 09:20:30;;;;;;;16.03;8.97;;;;;;;7.67;100.00;100412.89;1695291;82;21505;-68
2021/01/24 09:22:59;;;;;;;15.30;8.77;;;;;;;7.84;100.00;100413.24;1696093;83;21328;-69
2021/01/24 09:25:28;;;;;;;13.97;8.13;;;;;;;8.07;100.00;100408.67;1696441;82;21435;-68
2021/01/24 09:27:56;;;;;;;18.37;8.93;;;;;;;8.27;100.00;100405.59;1702096;83;21328;-68
2021/01/24 09:30:25;;;;;;;26.63;9.87;;;;;;;8.45;100.00;100400.73;1702381;83;22578;-69
2021/01/24 09:32:53;;;;;;;20.70;8.63;;;;;;;8.60;100.00;100405.58;1702237;83;21519;-67
2021/01/24 09:35:22;;;;;;;17.23;8.97;;;;;;;8.76;100.00;100396.92;1700510;82;21943;-67
2021/01/24 09:37:50;;;;;;;20.63;10.47;;;;;;;8.90;100.00;100400.59;1702195;83;21850;-67
2021/01/24 09:40:19;;;;;;;25.23;11.03;;;;;;;9.00;100.00;100400.71;1701712;83;21451;-68
2021/01/24 09:42:47;;;;;;;22.97;10.80;;;;;;;9.13;95.56;100394.15;1699769;83;22984;-67
2021/01/24 09:45:15;;;;;;;20.37;11.10;;;;;;;9.16;94.86;100393.81;1702306;83;21542;-67
2021/01/24 09:47:43;;;;;;;19.97;10.97;;;;;;;9.16;94.86;100393.81;1755831;81;22185;-67
2021/01/24 09:50:13;;;;;;;22.17;11.50;;;;;;;9.15;92.10;100385.70;1756595;80;21912;-68
2021/01/24 09:52:41;;;;;;;21.00;11.57;;;;;;;9.15;92.10;100385.70;1755577;80;21645;-67
2021/01/24 09:55:11;;;;;;;24.50;11.20;;;;;;;9.07;88.70;100387.05;1755788;80;21849;-67
2021/01/24 09:57:39;;;;;;;26.23;12.33;;;;;;;9.01;87.89;100388.52;1755624;80;21460;-67
2021/01/24 10:00:08;;;;;;;22.10;10.90;;;;;;;9.01;87.89;100388.52;1755473;81;21543;-67
2021/01/24 10:02:39;;;;;;;;;;;;;;;8.94;86.53;100379.31;1757654;80;21492;-67
2021/01/24 10:05:09;;;;;;;23.07;10.40;;;;;;;8.89;88.02;100376.88;1755891;81;20319;-67
2021/01/24 10:07:37;;;;;;;20.37;10.27;;;;;;;8.89;88.02;100376.88;1769491;79;21665;-67
2021/01/24 10:10:07;;;;;;;20.13;9.73;;;;;;;8.88;87.45;100371.36;1780119;79;21418;-67
2021/01/24 10:12:35;;;;;;;21.07;9.63;;;;;;;8.86;86.68;100366.31;1771877;79;21393;-68
2021/01/24 10:15:04;;;;;;;22.50;10.47;;;;;;;8.86;86.68;100366.31;1775825;79;22867;-67
2021/01/24 10:17:33;;;;;;;27.63;11.43;;;;;;;8.92;87.18;100361.75;1701100;84;21522;-67
2021/01/24 10:20:02;;;;;;;19.20;10.10;;;;;;;8.92;87.18;100361.75;1773894;78;21585;-67
2021/01/24 10:22:30;;;;;;;17.97;8.07;;;;;;;8.92;86.49;100353.95;1774053;78;22056;-67
2021/01/24 10:24:59;;;;;;;19.23;9.80;;;;;;;8.94;87.76;100354.61;1776611;79;21769;-67
2021/01/24 10:27:28;;;;;;;19.90;10.07;;;;;;;8.94;87.76;100354.61;1768265;79;21572;-68
2021/01/24 10:29:56;;;;;;;21.37;10.53;;;;;;;8.96;86.92;100355.73;1773692;79;21776;-69
2021/01/24 10:32:25;;;;;;;21.87;9.83;;;;;;;8.96;86.44;100352.63;1773883;79;22912;-68
2021/01/24 10:34:55;;;;;;;18.63;9.43;;;;;;;8.97;86.70;100351.64;1774909;79;21838;-66
2021/01/24 10:37:24;;;;;;;19.77;9.60;;;;;;;9.00;86.68;100348.71;1775077;79;21881;-67
2021/01/24 10:39:52;;;;;;;21.47;10.00;;;;;;;9.05;85.59;100351.29;1772154;79;21255;-68
2021/01/24 10:42:22;;;;;;;18.97;10.53;;;;;;;9.07;85.90;100344.14;1773365;79;21527;-68
2021/01/24 10:44:51;;;;;;;25.40;11.97;;;;;;;9.12;86.27;100341.83;1775221;79;23542;-68
2021/01/24 10:47:20;;;;;;;33.23;19.30;;;;;;;9.16;86.64;100342.61;1774955;79;21406;-67
2021/01/24 10:49:49;;;;;;;80.33;72.20;;;;;;;9.21;83.46;100334.31;1769643;80;21884;-68
2021/01/24 10:52:17;;;;;;;32.03;19.63;;;;;;;9.10;75.96;100343.31;1772687;79;21372;-66
2021/01/24 10:54:46;;;;;;;26.37;13.60;;;;;;;9.10;75.96;100343.31;1772765;80;21918;-67
2021/01/24 10:57:14;;;;;;;19.90;10.70;;;;;;;9.05;76.18;100349.98;1773326;79;22665;-66
2021/01/24 10:59:42;;;;;;;11.13;6.53;;;;;;;8.98;74.35;100348.58;1772816;79;21926;-67
2021/01/24 11:02:11;;;;;;;13.00;7.03;;;;;;;8.89;73.27;100339.19;1777257;79;21929;-67
2021/01/24 11:04:39;;;;;;;14.20;8.30;;;;;;;8.74;74.75;100341.19;1771391;80;21998;-67
2021/01/24 11:07:08;;;;;;;17.50;10.83;;;;;;;8.56;77.11;100342.39;1777161;79;21475;-67
2021/01/24 11:09:36;;;;;;;16.80;10.13;;;;;;;8.39;77.64;100339.05;1766908;79;22504;-67
2021/01/24 11:12:26;;;;;;;16.47;10.83;;;;;;;8.23;77.93;100340.68;1770996;80;21752;-68
2021/01/24 11:14:55;;;;;;;15.72;9.80;;;;;;;8.09;78.79;100335.34;1790690;79;21369;-67
2021/01/24 11:17:24;;;;;;;14.40;8.67;;;;;;;7.94;80.57;100336.00;1796800;79;21057;-68
2021/01/24 11:22:41;;;;;;;25.20;18.30;;;;;;;7.72;86.61;100331.47;1824430;76;23395;-68
2021/01/24 11:25:11;;;;;;;29.33;26.33;;;;;;;7.59;86.90;100334.56;1804038;77;21003;-68
2021/01/24 11:27:41;;;;;;;20.10;15.88;;;;;;;7.48;86.95;100330.50;1772638;79;21226;-66
2021/01/24 11:30:12;;;;;;;15.03;9.93;;;;;;;7.39;86.10;100334.56;1791031;77;21027;-66
2021/01/24 11:32:41;;;;;;;16.57;8.13;;;;;;;7.31;84.06;100328.39;1790735;77;21314;-67
2021/01/24 11:35:12;;;;;;;13.40;7.57;;;;;;;7.29;83.73;100329.50;1786247;77;21297;-68
2021/01/24 11:37:41;;;;;;;13.83;7.83;;;;;;;7.30;84.24;100326.73;1789360;77;21371;-66
2021/01/24 11:40:11;;;;;;;13.47;7.77;;;;;;;7.33;83.98;100317.84;1789868;77;21392;-67
2021/01/24 11:42:40;;;;;;;12.53;9.50;;;;;;;7.39;84.53;100319.00;1789062;78;21233;-66
2021/01/24 11:45:11;;;;;;;12.43;8.65;;;;;;;7.46;84.87;100316.06;1782486;77;21191;-68
2021/01/24 11:47:39;;;;;;;16.30;8.93;;;;;;;7.56;84.84;100314.94;1793368;78;21714;-66
2021/01/24 11:50:09;;;;;;;17.57;11.23;;;;;;;7.65;83.68;100313.17;1800167;77;21410;-66
2021/01/24 11:52:37;;;;;;;13.83;7.67;;;;;;;7.74;82.08;100315.27;1793948;78;21248;-66
2021/01/24 11:55:07;;;;;;;15.03;8.37;;;;;;;7.78;78.11;100316.56;1776485;77;21882;-68
2021/01/24 11:57:36;;;;;;;14.57;8.87;;;;;;;7.75;75.87;100307.80;1798580;77;21252;-66
2021/01/24 12:00:05;;;;;;;15.60;8.17;;;;;;;7.73;77.10;100313.66;1795926;77;21324;-66
2021/01/24 12:02:34;;;;;;;16.57;9.30;;;;;;;7.71;74.49;100320.29;1812234;77;21410;-66
2021/01/24 12:05:04;;;;;;;14.40;8.60;;;;;;;7.64;75.31;100314.61;1801951;77;22342;-68
2021/01/24 12:07:33;;;;;;;15.73;9.60;;;;;;;7.61;76.99;100315.73;1801299;77;21307;-66
2021/01/24 12:10:01;;;;;;;18.73;10.47;;;;;;;7.61;76.78;100317.03;1809899;77;21228;-65
2021/01/24 12:12:29;;;;;;;13.53;7.70;;;;;;;7.58;75.50;100312.66;1799085;77;21250;-66
2021/01/24 12:14:58;;;;;;;11.80;6.70;;;;;;;7.54;76.01;100305.72;1803794;77;21379;-66
2021/01/24 12:17:26;;;;;;;12.37;6.57;;;;;;;7.50;76.70;100301.33;1742930;81;21371;-66
2021/01/24 12:19:55;;;;;;;11.43;6.50;;;;;;;7.50;75.39;100307.82;1771596;79;21466;-66
2021/01/24 12:22:24;;;;;;;11.73;6.70;;;;;;;7.47;75.51;100296.95;1699132;80;21348;-66
2021/01/24 12:24:52;;;;;;;10.77;7.03;;;;;;;7.46;75.88;100296.15;1738208;81;21294;-65
2021/01/24 12:27:20;;;;;;;11.63;7.40;;;;;;;7.45;76.79;100294.50;1741713;81;21328;-66
2021/01/24 12:29:48;;;;;;;13.97;8.60;;;;;;;7.47;77.45;100302.95;1733160;81;21469;-66
2021/01/24 12:32:17;;;;;;;9.30;5.93;;;;;;;7.46;77.13;100301.33;1734046;81;21323;-66
2021/01/24 12:34:45;;;;;;;11.03;7.00;;;;;;;7.43;76.85;100296.47;1732865;81;21302;-65
2021/01/24 12:37:14;;;;;;;10.13;5.90;;;;;;;7.42;78.41;100298.71;1730101;81;21381;-68
2021/01/24 12:39:42;;;;;;;11.30;6.87;;;;;;;7.45;78.07;100301.48;1741100;81;21502;-66
2021/01/24 12:42:10;;;;;;;13.23;7.97;;;;;;;7.45;77.44;100299.69;1730913;81;21532;-66
2021/01/24 12:44:39;;;;;;;14.13;7.90;;;;;;;7.46;77.14;100300.04;1739750;81;21235;-67
2021/01/24 12:47:09;;;;;;;13.57;7.97;;;;;;;7.46;77.02;100300.04;1738958;81;21350;-69
2021/01/24 12:49:38;;;;;;;11.43;6.55;;;;;;;7.46;77.34;100298.74;1694469;84;21452;-67
2021/01/24 12:52:08;;;;;;;10.30;5.90;;;;;;;7.45;77.89;100302.77;1715051;83;21182;-67
2021/01/24 12:54:36;;;;;;;9.87;6.03;;;;;;;7.42;77.90;100297.41;1716351;82;21884;-67
2021/01/24 12:57:05;;;;;;;10.13;5.70;;;;;;;7.37;79.23;100299.69;1726628;81;21329;-67
2021/01/24 12:59:33;;;;;;;7.80;5.33;;;;;;;7.31;80.12;100304.21;1732357;81;21340;-69
2021/01/24 13:02:06;;;;;;;8.33;5.30;;;;;;;7.24;80.72;100298.07;1733534;81;21334;-66
2021/01/24 13:04:34;;;;;;;11.10;7.33;;;;;;;7.16;81.16;100303.22;1737747;81;21408;-66
2021/01/24 13:07:04;;;;;;;13.00;8.03;;;;;;;7.07;81.55;100301.91;1743520;81;21360;-66
2021/01/24 13:09:34;;;;;;;12.10;8.00;;;;;;;7.00;81.85;100299.62;1741312;81;21452;-66
2021/01/24 13:12:03;;;;;;;10.98;7.10;;;;;;;6.93;82.25;100297.83;1732710;81;21427;-67
2021/01/24 13:14:32;;;;;;;8.83;6.00;;;;;;;6.85;82.11;100294.73;1731469;81;20986;-66
2021/01/24 13:17:01;;;;;;;7.87;4.83;;;;;;;6.75;82.99;100300.06;1738402;81;21337;-66
2021/01/24 13:19:30;;;;;;;8.50;5.10;;;;;;;6.68;83.53;100303.44;1747886;81;21290;-67
2021/01/24 13:21:58;;;;;;;7.53;4.70;;;;;;;6.58;84.82;100301.77;1733066;81;21285;-67
2021/01/24 13:24:27;;;;;;;7.07;4.43;;;;;;;6.49;85.73;100305.30;1753311;79;21256;-67
2021/01/24 13:26:56;;;;;;;6.47;3.85;;;;;;;6.42;86.04;100299.59;1743251;80;21249;-67
2021/01/24 13:29:26;;;;;;;6.83;4.43;;;;;;;6.36;84.92;100298.91;1742912;80;21048;-67
2021/01/24 13:31:54;;;;;;;9.28;5.55;;;;;;;6.31;84.41;100292.42;1744968;80;21413;-67
2021/01/24 13:34:23;;;;;;;7.92;5.12;;;;;;;6.28;85.03;100297.09;1738011;80;21095;-67
2021/01/24 13:36:51;;;;;;;7.33;4.78;;;;;;;6.23;86.03;100299.34;1748852;80;21191;-67
2021/01/24 13:39:19;;;;;;;8.85;4.58;;;;;;;6.16;85.52;100298.33;1797619;78;21129;-67
2021/01/24 13:41:48;;;;;;;9.00;5.90;;;;;;;6.08;86.10;100299.09;1797460;78;21539;-67
2021/01/24 13:44:17;;;;;;;6.85;4.33;;;;;;;5.99;86.82;100302.12;1793780;78;21277;-67
2021/01/24 13:46:46;;;;;;;7.85;4.35;;;;;;;5.92;86.82;100305.44;1797141;78;21462;-67
2021/01/24 13:49:15;;;;;;;10.18;5.30;;;;;;;5.84;87.39;100300.53;1794621;78;20994;-68
2021/01/24 13:51:44;;;;;;;9.05;5.37;;;;;;;5.77;87.57;100302.09;1799187;78;20974;-66
2021/01/24 13:54:13;;;;;;;10.60;6.80;;;;;;;5.72;86.80;100302.20;1800935;78;21107;-68
2021/01/24 13:56:41;;;;;;;9.05;5.15;;;;;;;5.68;87.74;100306.05;1801661;78;21396;-68
2021/01/24 13:59:09;;;;;;;7.72;4.47;;;;;;;5.59;88.58;100302.11;1796219;78;22590;-68
2021/01/24 14:01:37;;;;;;;11.93;6.75;;;;;;;5.51;89.45;100304.63;1789820;78;20981;-68
2021/01/24 14:04:06;;;;;;;16.45;9.55;;;;;;;5.45;91.02;100305.22;1794975;78;21376;-67
2021/01/24 14:06:35;;;;;;;15.13;8.58;;;;;;;5.38;92.20;100304.20;1790759;78;21079;-67
2021/01/24 14:09:05;;;;;;;11.45;6.60;;;;;;;5.31;93.40;100305.27;1798444;78;21637;-66
2021/01/24 14:11:33;;;;;;;14.75;8.08;;;;;;;5.22;94.25;100306.14;1783395;78;21008;-67
2021/01/24 14:14:01;;;;;;;14.98;7.35;;;;;;;5.14;95.79;100300.89;1798879;78;21212;-67
2021/01/24 14:16:29;;;;;;;16.07;8.93;;;;;;;5.03;96.97;100299.33;1795863;78;20944;-67
2021/01/24 14:18:58;;;;;;;18.85;8.98;;;;;;;4.95;98.48;100305.70;1800743;78;21142;-67
2021/01/24 14:21:26;;;;;;;14.65;8.80;;;;;;;4.87;99.77;100310.79;1794198;78;21216;-68
2021/01/24 14:23:54;;;;;;;12.90;7.97;;;;;;;4.82;100.00;100311.71;1775612;78;21074;-67
2021/01/24 14:26:23;;;;;;;13.43;6.85;;;;;;;4.76;100.00;100308.41;1783550;78;21480;-68
2021/01/24 14:28:51;;;;;;;14.35;7.12;;;;;;;4.68;100.00;100301.37;1768175;78;20934;-66
2021/01/24 14:31:20;;;;;;;23.98;11.00;;;;;;;4.61;100.00;100308.88;1777081;78;21068;-67
2021/01/24 14:33:49;;;;;;;58.78;36.93;;;;;;;4.54;100.00;100312.16;1768666;78;21934;-66
2021/01/24 14:36:17;;;;;;;14.47;9.63;;;;;;;4.47;100.00;100308.53;1775693;78;21613;-66
2021/01/24 14:38:45;;;;;;;9.93;5.72;;;;;;;4.41;100.00;100312.50;1775877;78;21674;-66
2021/01/24 14:41:17;;;;;;;14.05;6.28;;;;;;;4.37;100.00;100306.00;1772267;78;21144;-69
2021/01/24 14:43:45;;;;;;;10.65;6.45;;;;;;;4.36;100.00;100312.94;1778509;78;21024;-67
2021/01/24 14:46:14;;;;;;;7.85;4.70;;;;;;;4.35;100.00;100310.47;1769273;78;22282;-69
2021/01/24 14:48:43;;;;;;;13.20;6.70;;;;;;;4.31;100.00;100305.27;1714543;81;21088;-68
2021/01/24 14:51:12;;;;;;;9.58;6.28;;;;;;;4.26;100.00;100306.98;1779107;78;21473;-69
2021/01/24 14:53:40;;;;;;;9.03;5.50;;;;;;;4.20;100.00;100310.59;1767167;78;21045;-68
2021/01/24 14:56:08;;;;;;;8.40;5.40;;;;;;;4.13;100.00;100310.36;1769957;78;21116;-67
2021/01/24 14:58:37;;;;;;;9.88;5.75;;;;;;;4.09;100.00;100314.98;1762092;78;21467;-69
2021/01/24 15:01:06;;;;;;;9.00;5.10;;;;;;;4.06;100.00;100316.55;1768206;78;20938;-70
2021/01/24 15:03:34;;;;;;;8.13;4.87;;;;;;;4.03;100.00;100312.95;1768333;78;20938;-70
2021/01/24 15:06:03;;;;;;;9.33;5.12;;;;;;;4.00;100.00;100311.94;1766667;78;21037;-67
2021/01/24 15:08:32;;;;;;;7.70;4.35;;;;;;;3.98;100.00;100315.14;1764679;78;21152;-67
2021/01/24 15:11:00;;;;;;;7.40;4.42;;;;;;;3.95;100.00;100315.41;1771093;78;21363;-67
2021/01/24 15:13:28;;;;;;;12.13;7.72;;;;;;;3.93;100.00;100317.30;1715294;81;21193;-68
2021/01/24 15:15:57;;;;;;;11.10;6.20;;;;;;;3.92;100.00;100311.81;1738086;79;21207;-68
2021/01/24 15:18:25;;;;;;;9.18;5.60;;;;;;;3.86;100.00;100322.67;1730275;81;21132;-68
2021/01/24 15:20:54;;;;;;;11.83;7.53;;;;;;;3.83;100.00;100321.20;1769980;78;20931;-67
2021/01/24 15:23:24;;;;;;;12.30;7.75;;;;;;;3.79;100.00;100315.98;1775584;78;22611;-69
2021/01/24 15:25:53;;;;;;;10.28;6.83;;;;;;;3.74;100.00;100320.72;1789457;78;21023;-69
2021/01/24 15:28:21;;;;;;;8.08;5.25;;;;;;;3.72;100.00;100323.12;1787816;78;21001;-66
2021/01/24 15:30:49;;;;;;;9.78;5.95;;;;;;;3.66;100.00;100312.38;1789670;78;21112;-67
2021/01/24 15:33:18;;;;;;;9.93;5.85;;;;;;;3.63;100.00;100317.80;1791780;78;21103;-69
2021/01/24 15:35:47;;;;;;;10.38;5.90;;;;;;;3.62;100.00;100316.66;1796147;78;21582;-70
2021/01/24 15:38:17;;;;;;;12.70;7.92;;;;;;;3.61;100.00;100314.57;1796859;78;21202;-72